createdAt,value
2017-12-25T00:02:14.854Z,10.50
2017-12-25T00:04:44.608Z,10.50
2017-12-25T00:07:14.380Z,10.50
2017-12-25T00:09:44.102Z,10.50
2017-12-25T00:12:13.863Z,10.50
2017-12-25T00:14:44.375Z,10.50
2017-12-25T00:17:14.937Z,10.50
2017-12-25T00:19:44.667Z,10.50
2017-12-25T00:22:14.427Z,10.50
2017-12-25T00:24:43.893Z,10.50
2017-12-25T00:27:13.641Z,10.50
2017-12-25T00:29:44.199Z,10.40
2017-12-25T00:32:14.664Z,10.50
2017-12-25T00:34:44.410Z,10.40
2017-12-25T00:37:14.905Z,10.40
2017-12-25T00:39:44.664Z,10.40
2017-12-25T00:42:15.142Z,10.40
2017-12-25T00:44:44.895Z,10.40
2017-12-25T00:47:15.394Z,10.40
2017-12-25T00:49:45.144Z,10.40
2017-12-25T00:52:15.688Z,10.40
2017-12-25T00:54:46.210Z,10.40
2017-12-25T00:57:16.719Z,10.40
2017-12-25T00:59:47.215Z,10.40
2017-12-25T01:02:17.002Z,10.40
2017-12-25T01:04:46.711Z,10.40
2017-12-25T01:07:16.471Z,10.30
2017-12-25T01:09:46.723Z,10.30
2017-12-25T01:12:17.197Z,10.30
2017-12-25T01:14:46.958Z,10.30
2017-12-25T01:17:17.441Z,10.30
2017-12-25T01:19:47.186Z,10.30
2017-12-25T01:22:17.710Z,10.30
2017-12-25T01:24:47.424Z,10.30
2017-12-25T01:27:17.165Z,10.30
2017-12-25T01:29:46.894Z,10.30
2017-12-25T01:32:16.635Z,10.30
2017-12-25T01:34:46.390Z,10.30
2017-12-25T01:37:16.119Z,10.30
2017-12-25T01:39:45.922Z,10.20
2017-12-25T01:42:15.635Z,10.20
2017-12-25T01:44:45.414Z,10.20
2017-12-25T01:47:15.156Z,10.20
2017-12-25T01:49:44.914Z,10.20
2017-12-25T01:52:14.001Z,10.30
2017-12-25T01:54:42.546Z,10.20
2017-12-25T01:57:23.121Z,10.20
2017-12-25T02:02:54.117Z,10.20
2017-12-25T02:05:46.137Z,10.20
2017-12-25T02:08:32.541Z,10.20
2017-12-25T02:11:01.739Z,10.20
2017-12-25T02:13:30.998Z,10.20
2017-12-25T02:16:00.950Z,10.20
2017-12-25T02:18:30.709Z,10.20
2017-12-25T02:21:01.219Z,10.20
2017-12-25T02:23:30.991Z,10.20
2017-12-25T02:26:00.710Z,10.20
2017-12-25T02:28:30.510Z,10.20
2017-12-25T02:31:00.245Z,10.20
2017-12-25T02:33:30.109Z,10.20
2017-12-25T02:36:00.618Z,10.20
2017-12-25T02:38:31.112Z,10.20
2017-12-25T02:41:00.856Z,10.20
2017-12-25T02:43:30.566Z,10.20
2017-12-25T02:46:00.347Z,10.10
2017-12-25T02:48:30.073Z,10.10
2017-12-25T02:50:59.833Z,10.10
2017-12-25T02:53:29.542Z,10.00
2017-12-25T02:55:59.306Z,10.00
2017-12-25T02:58:29.051Z,10.00
2017-12-25T03:00:59.558Z,10.00
2017-12-25T03:03:29.302Z,10.00
2017-12-25T03:05:59.026Z,10.00
2017-12-25T03:08:28.774Z,10.00
2017-12-25T03:10:58.556Z,9.90
2017-12-25T03:13:28.261Z,10.00
2017-12-25T03:15:58.010Z,10.00
2017-12-25T03:18:27.712Z,9.90
2017-12-25T03:20:57.449Z,9.90
2017-12-25T03:23:27.180Z,9.90
2017-12-25T03:25:57.710Z,9.90
2017-12-25T03:28:28.213Z,9.90
2017-12-25T03:31:04.272Z,9.90
2017-12-25T03:33:33.994Z,9.90
2017-12-25T03:36:04.510Z,9.80
2017-12-25T03:38:34.220Z,9.80
2017-12-25T03:41:03.958Z,9.80
2017-12-25T03:43:34.482Z,9.80
2017-12-25T03:46:04.970Z,9.80
2017-12-25T03:48:34.726Z,9.80
2017-12-25T03:51:05.205Z,9.80
2017-12-25T03:53:34.996Z,9.80
2017-12-25T03:56:04.730Z,9.80
2017-12-25T03:58:34.493Z,9.80
2017-12-25T04:01:04.970Z,9.80
2017-12-25T04:03:34.706Z,9.80
2017-12-25T04:06:04.093Z,9.80
2017-12-25T04:08:33.829Z,9.80
2017-12-25T04:11:04.326Z,9.80
2017-12-25T04:13:34.082Z,9.70
2017-12-25T04:16:04.565Z,9.80
2017-12-25T04:18:34.339Z,9.70
2017-12-25T04:21:04.075Z,9.70
2017-12-25T04:23:33.813Z,9.80
2017-12-25T04:26:03.564Z,9.80
2017-12-25T04:28:34.057Z,9.80
2017-12-25T04:31:04.279Z,9.80
2017-12-25T04:33:33.997Z,9.80
2017-12-25T04:36:04.518Z,9.70
2017-12-25T04:38:34.246Z,9.70
2017-12-25T04:41:04.725Z,9.70
2017-12-25T04:43:34.457Z,9.70
2017-12-25T04:46:04.229Z,9.70
2017-12-25T04:48:33.958Z,9.70
2017-12-25T04:51:03.678Z,9.70
2017-12-25T04:53:33.442Z,9.60
2017-12-25T04:56:03.917Z,9.50
2017-12-25T04:58:33.706Z,9.50
2017-12-25T05:01:03.413Z,9.50
2017-12-25T05:03:33.170Z,9.50
2017-12-25T05:06:02.905Z,9.50
2017-12-25T05:08:32.593Z,9.50
2017-12-25T05:11:02.386Z,9.50
2017-12-25T05:13:32.119Z,9.50
2017-12-25T05:16:02.635Z,9.50
2017-12-25T05:18:32.357Z,9.50
2017-12-25T05:21:03.610Z,9.50
2017-12-25T05:23:34.188Z,9.50
2017-12-25T05:26:03.954Z,9.50
2017-12-25T05:28:33.895Z,9.50
2017-12-25T05:31:04.021Z,9.50
2017-12-25T05:33:33.786Z,9.50
2017-12-25T05:36:03.164Z,9.50
2017-12-25T05:38:32.962Z,9.50
2017-12-25T05:41:02.694Z,9.40
2017-12-25T05:43:32.423Z,9.40
2017-12-25T05:46:02.639Z,9.40
2017-12-25T05:48:32.387Z,9.40
2017-12-25T05:51:02.941Z,9.40
2017-12-25T05:53:32.670Z,9.40
2017-12-25T05:56:02.463Z,9.40
2017-12-25T05:58:32.186Z,9.40
2017-12-25T06:01:01.937Z,9.40
2017-12-25T06:03:31.653Z,9.40
2017-12-25T06:06:01.399Z,9.40
2017-12-25T06:08:31.150Z,9.40
2017-12-25T06:11:00.895Z,9.40
2017-12-25T06:13:30.641Z,9.40
2017-12-25T06:16:00.371Z,9.40
2017-12-25T06:18:30.118Z,9.40
2017-12-25T06:20:59.830Z,9.40
2017-12-25T06:23:29.576Z,9.40
2017-12-25T06:26:00.100Z,9.40
2017-12-25T06:28:30.586Z,9.40
2017-12-25T06:31:00.361Z,9.40
2017-12-25T06:33:30.069Z,9.40
2017-12-25T06:35:59.810Z,9.50
2017-12-25T06:38:29.550Z,9.50
2017-12-25T06:41:00.022Z,9.50
2017-12-25T06:43:30.334Z,9.50
2017-12-25T06:46:00.079Z,9.50
2017-12-25T06:48:29.820Z,9.50
2017-12-25T06:50:59.565Z,9.50
2017-12-25T06:53:29.278Z,9.50
2017-12-25T06:55:59.025Z,9.50
2017-12-25T06:58:28.738Z,9.50
2017-12-25T07:00:58.966Z,9.50
2017-12-25T07:03:28.668Z,9.50
2017-12-25T07:05:58.455Z,9.60
2017-12-25T07:08:28.155Z,9.50
2017-12-25T07:10:57.914Z,9.50
2017-12-25T07:13:27.633Z,9.50
2017-12-25T07:15:58.983Z,9.50
2017-12-25T07:18:28.698Z,9.50
2017-12-25T07:20:58.459Z,9.50
2017-12-25T07:23:28.186Z,9.50
2017-12-25T07:25:57.928Z,9.60
2017-12-25T07:28:27.638Z,9.60
2017-12-25T07:30:57.397Z,9.60
2017-12-25T07:33:27.119Z,9.50
2017-12-25T07:35:56.869Z,9.60
2017-12-25T07:38:26.581Z,9.60
2017-12-25T07:40:56.348Z,9.60
2017-12-25T07:43:26.058Z,9.50
2017-12-25T07:45:55.820Z,9.50
2017-12-25T07:48:25.558Z,9.40
2017-12-25T07:50:56.087Z,9.20
2017-12-25T07:53:25.801Z,9.20
2017-12-25T07:55:55.556Z,9.10
2017-12-25T07:58:25.304Z,9.10
2017-12-25T08:00:55.031Z,9.10
2017-12-25T08:03:24.754Z,9.00
2017-12-25T08:05:54.503Z,9.00
2017-12-25T08:08:24.233Z,9.00
2017-12-25T08:10:53.963Z,9.00
2017-12-25T08:13:24.511Z,9.00
2017-12-25T08:15:54.215Z,9.00
2017-12-25T08:18:23.998Z,9.00
2017-12-25T08:20:53.700Z,9.00
2017-12-25T08:23:23.452Z,9.10
2017-12-25T08:25:53.954Z,9.10
2017-12-25T08:28:23.669Z,9.10
2017-12-25T08:30:53.426Z,9.10
2017-12-25T08:33:23.130Z,9.20
2017-12-25T08:35:52.866Z,9.20
2017-12-25T08:38:22.608Z,9.20
2017-12-25T08:40:52.345Z,9.30
2017-12-25T08:43:22.050Z,9.30
2017-12-25T08:45:51.826Z,9.30
2017-12-25T08:48:21.550Z,9.40
2017-12-25T08:50:51.313Z,9.40
2017-12-25T08:53:21.013Z,9.50
2017-12-25T08:55:50.785Z,9.50
2017-12-25T08:58:20.501Z,9.60
2017-12-25T09:00:51.033Z,9.60
2017-12-25T09:03:21.539Z,9.60
2017-12-25T09:05:51.245Z,9.60
2017-12-25T09:08:21.005Z,9.60
2017-12-25T09:10:50.713Z,9.60
2017-12-25T09:13:20.505Z,9.60
2017-12-25T09:15:51.018Z,9.70
2017-12-25T09:18:20.758Z,9.70
2017-12-25T09:20:50.514Z,9.70
2017-12-25T09:23:20.220Z,9.70
2017-12-25T09:25:50.030Z,9.60
2017-12-25T09:28:19.762Z,9.50
2017-12-25T09:30:49.519Z,9.50
2017-12-25T09:33:19.273Z,9.50
2017-12-25T09:35:49.254Z,9.50
2017-12-25T09:38:18.987Z,9.40
2017-12-25T09:40:48.801Z,9.40
2017-12-25T09:43:18.498Z,9.40
2017-12-25T09:45:48.252Z,9.30
2017-12-25T09:48:17.995Z,9.30
2017-12-25T09:50:48.459Z,9.20
2017-12-25T09:53:18.224Z,9.30
2017-12-25T09:55:48.706Z,9.20
2017-12-25T09:58:18.453Z,9.20
2017-12-25T10:00:48.942Z,9.10
2017-12-25T10:03:18.687Z,9.10
2017-12-25T10:05:48.401Z,9.20
2017-12-25T10:08:18.135Z,9.10
2017-12-25T10:10:48.632Z,9.10
2017-12-25T10:13:18.402Z,9.10
2017-12-25T10:15:48.114Z,9.10
2017-12-25T10:18:17.867Z,9.10
2017-12-25T10:20:47.667Z,9.10
2017-12-25T10:23:17.558Z,9.10
2017-12-25T10:25:47.320Z,9.10
2017-12-25T10:28:17.101Z,9.20
2017-12-25T10:30:46.504Z,9.20
2017-12-25T10:33:16.256Z,9.20
2017-12-25T10:35:46.759Z,9.30
2017-12-25T10:38:16.493Z,9.20
2017-12-25T10:40:47.032Z,9.30
2017-12-25T10:43:17.511Z,9.30
2017-12-25T10:45:47.276Z,9.30
2017-12-25T10:48:17.027Z,9.30
2017-12-25T10:50:46.738Z,9.30
2017-12-25T10:53:16.487Z,9.30
2017-12-25T10:55:47.007Z,9.30
2017-12-25T10:58:16.768Z,9.20
2017-12-25T11:00:52.308Z,9.20
2017-12-25T11:03:22.009Z,9.20
2017-12-25T11:05:52.541Z,9.20
2017-12-25T11:08:22.257Z,9.10
2017-12-25T11:10:52.011Z,9.10
2017-12-25T11:13:21.793Z,9.10
2017-12-25T11:15:51.516Z,9.10
2017-12-25T11:18:21.254Z,9.20
2017-12-25T11:20:52.478Z,9.30
2017-12-25T11:23:22.255Z,9.30
2017-12-25T11:25:52.003Z,9.30
2017-12-25T11:28:21.743Z,9.20
2017-12-25T11:30:51.479Z,9.20
2017-12-25T11:33:21.200Z,9.20
2017-12-25T11:35:51.100Z,9.20
2017-12-25T11:38:21.578Z,9.10
2017-12-25T11:40:51.326Z,9.10
2017-12-25T11:43:21.834Z,9.10
2017-12-25T11:45:51.589Z,9.10
2017-12-25T11:48:21.409Z,9.10
2017-12-25T11:50:51.157Z,9.20
2017-12-25T11:53:20.904Z,9.20
2017-12-25T11:55:51.412Z,9.10
2017-12-25T11:58:21.193Z,9.10
2017-12-25T12:00:50.945Z,9.20
2017-12-25T12:03:20.682Z,9.20
2017-12-25T12:05:51.168Z,9.20
2017-12-25T12:08:20.950Z,9.20
2017-12-25T12:10:50.698Z,9.30
2017-12-25T12:13:20.943Z,9.30
2017-12-25T12:15:51.454Z,9.30
2017-12-25T12:18:21.190Z,9.30
2017-12-25T12:20:51.719Z,9.40
2017-12-25T12:23:21.409Z,9.40
2017-12-25T12:25:51.966Z,9.40
2017-12-25T12:28:21.666Z,9.40
2017-12-25T12:30:52.189Z,9.40
2017-12-25T12:33:22.708Z,9.40
2017-12-25T12:35:52.427Z,9.40
2017-12-25T12:38:22.184Z,9.30
2017-12-25T12:40:51.919Z,9.20
2017-12-25T12:43:21.643Z,9.20
2017-12-25T12:45:51.372Z,9.20
2017-12-25T12:48:21.918Z,9.10
2017-12-25T12:50:52.411Z,9.10
2017-12-25T12:53:22.194Z,9.00
2017-12-25T12:55:51.903Z,9.00
2017-12-25T12:58:21.681Z,9.00
2017-12-25T13:00:52.210Z,9.00
2017-12-25T13:03:22.697Z,9.00
2017-12-25T13:05:52.445Z,9.00
2017-12-25T13:08:22.913Z,9.00
2017-12-25T13:10:52.680Z,9.00
2017-12-25T13:13:23.194Z,9.00
2017-12-25T13:15:52.920Z,8.90
2017-12-25T13:18:23.437Z,9.00
2017-12-25T13:20:53.918Z,9.00
2017-12-25T13:23:23.663Z,8.90
2017-12-25T13:25:53.374Z,9.00
2017-12-25T13:28:23.894Z,8.90
2017-12-25T13:30:53.714Z,8.90
2017-12-25T13:33:23.426Z,9.00
2017-12-25T13:35:53.184Z,8.90
2017-12-25T13:38:22.902Z,8.90
2017-12-25T13:40:52.657Z,8.90
2017-12-25T13:43:22.414Z,8.90
2017-12-25T13:45:52.123Z,8.90
2017-12-25T13:48:21.880Z,8.90
2017-12-25T13:50:51.798Z,8.90
2017-12-25T13:53:21.530Z,8.90
2017-12-25T13:55:51.302Z,8.80
2017-12-25T13:58:21.018Z,8.80
2017-12-25T14:00:50.757Z,8.80
2017-12-25T14:03:20.520Z,8.80
2017-12-25T14:05:50.235Z,8.80
2017-12-25T14:08:20.009Z,8.80
2017-12-25T14:10:50.494Z,8.80
2017-12-25T14:13:20.233Z,8.80
2017-12-25T14:15:49.966Z,8.80
2017-12-25T14:18:19.701Z,8.80
2017-12-25T14:20:49.276Z,8.80
2017-12-25T14:23:19.738Z,8.80
2017-12-25T14:25:49.490Z,8.80
2017-12-25T14:28:19.233Z,8.80
2017-12-25T14:30:49.789Z,8.80
2017-12-25T14:33:19.549Z,8.80
2017-12-25T14:35:49.294Z,8.80
2017-12-25T14:38:19.002Z,8.70
2017-12-25T14:40:48.750Z,8.80
2017-12-25T14:43:18.462Z,8.80
2017-12-25T14:45:48.206Z,8.70
2017-12-25T14:48:17.942Z,8.80
2017-12-25T14:50:48.441Z,8.70
2017-12-25T14:53:18.215Z,8.70
2017-12-25T14:55:47.914Z,8.70
2017-12-25T14:58:17.670Z,8.70
2017-12-25T15:00:47.408Z,8.70
2017-12-25T15:03:17.183Z,8.70
2017-12-25T15:05:46.889Z,8.70
2017-12-25T15:08:16.650Z,8.70
2017-12-25T15:10:47.147Z,8.60
2017-12-25T15:13:16.858Z,8.60
2017-12-25T15:15:46.607Z,8.60
2017-12-25T15:18:16.330Z,8.60
2017-12-25T15:20:46.067Z,8.70
2017-12-25T15:23:15.790Z,8.60
2017-12-25T15:25:45.546Z,8.60
2017-12-25T15:28:15.319Z,8.60
2017-12-25T15:30:45.036Z,8.60
2017-12-25T15:33:14.780Z,8.60
2017-12-25T15:35:44.487Z,8.60
2017-12-25T15:38:14.233Z,8.60
2017-12-25T15:40:43.710Z,8.60
2017-12-25T15:43:13.437Z,8.60
2017-12-25T15:45:43.187Z,8.60
2017-12-25T15:48:12.381Z,8.60
2017-12-25T15:50:42.157Z,8.50
2017-12-25T15:53:11.878Z,8.50
2017-12-25T15:55:41.614Z,8.50
2017-12-25T15:58:11.366Z,8.50
2017-12-25T16:00:41.118Z,8.50
2017-12-25T16:03:10.613Z,8.50
2017-12-25T16:05:40.339Z,8.50
2017-12-25T16:08:10.271Z,8.50
2017-12-25T16:10:39.985Z,8.50
2017-12-25T16:13:09.754Z,8.40
2017-12-25T16:15:39.561Z,8.40
2017-12-25T16:18:09.329Z,8.30
2017-12-25T16:20:39.046Z,8.30
2017-12-25T16:23:08.783Z,8.30
2017-12-25T16:25:38.542Z,8.40
2017-12-25T16:28:07.925Z,8.40
2017-12-25T16:30:37.687Z,8.30
2017-12-25T16:33:07.397Z,8.30
2017-12-25T16:35:37.266Z,8.30
2017-12-25T16:38:07.221Z,8.30
2017-12-25T16:40:37.245Z,8.30
2017-12-25T16:43:07.812Z,8.30
2017-12-25T16:45:38.187Z,8.30
2017-12-25T16:48:07.898Z,8.20
2017-12-25T16:50:37.641Z,8.20
2017-12-25T16:53:07.421Z,8.30
2017-12-25T16:55:37.138Z,8.30
2017-12-25T16:58:06.974Z,8.30
2017-12-25T17:00:37.442Z,8.20
2017-12-25T17:03:07.223Z,8.20
2017-12-25T17:05:36.994Z,8.20
2017-12-25T17:08:06.702Z,8.20
2017-12-25T17:10:36.437Z,8.20
2017-12-25T17:13:08.387Z,8.10
2017-12-25T17:15:38.091Z,8.10
2017-12-25T17:18:07.821Z,8.10
2017-12-25T17:20:37.577Z,8.10
2017-12-25T17:23:07.306Z,8.10
2017-12-25T17:25:37.042Z,8.10
2017-12-25T17:28:07.522Z,8.00
2017-12-25T17:30:37.302Z,8.00
2017-12-25T17:33:07.785Z,8.00
2017-12-25T17:35:37.574Z,8.00
2017-12-25T17:38:07.307Z,8.00
2017-12-25T17:40:37.078Z,8.00
2017-12-25T17:43:06.853Z,8.00
2017-12-25T17:45:36.550Z,8.00
2017-12-25T17:48:06.297Z,8.00
2017-12-25T17:50:36.024Z,8.00
2017-12-25T17:53:05.741Z,7.90
2017-12-25T17:55:35.461Z,8.00
2017-12-25T17:58:05.189Z,8.00
2017-12-25T18:00:34.922Z,7.90
2017-12-25T18:03:04.406Z,7.90
2017-12-25T18:05:34.158Z,7.90
2017-12-25T18:08:04.677Z,7.80
2017-12-25T18:10:34.398Z,7.80
2017-12-25T18:13:04.189Z,7.80
2017-12-25T18:15:33.894Z,7.80
2017-12-25T18:18:03.646Z,7.80
2017-12-25T18:20:33.402Z,7.80
2017-12-25T18:23:03.113Z,7.70
2017-12-25T18:25:32.895Z,7.70
2017-12-25T18:28:02.827Z,7.80
2017-12-25T18:30:32.567Z,7.80
2017-12-25T18:33:02.065Z,7.70
2017-12-25T18:35:31.765Z,7.70
2017-12-25T18:38:01.525Z,7.70
2017-12-25T18:40:32.014Z,7.60
2017-12-25T18:43:02.089Z,7.60
2017-12-25T18:45:32.022Z,7.60
2017-12-25T18:48:01.762Z,7.60
2017-12-25T18:50:31.502Z,7.70
2017-12-25T18:53:01.222Z,7.60
2017-12-25T18:55:31.727Z,7.70
2017-12-25T18:58:01.439Z,7.60
2017-12-25T19:00:31.186Z,7.60
2017-12-25T19:03:00.913Z,7.60
2017-12-25T19:05:30.675Z,7.70
2017-12-25T19:08:00.379Z,7.70
2017-12-25T19:10:30.166Z,7.70
2017-12-25T19:12:59.943Z,7.60
2017-12-25T19:15:29.685Z,7.70
2017-12-25T19:17:59.403Z,7.70
2017-12-25T19:20:29.146Z,7.70
2017-12-25T19:22:59.657Z,7.60
2017-12-25T19:25:30.866Z,7.60
2017-12-25T19:28:00.607Z,7.60
2017-12-25T19:30:30.345Z,7.60
2017-12-25T19:33:00.861Z,7.60
2017-12-25T19:35:30.596Z,7.60
2017-12-25T19:38:01.082Z,7.60
2017-12-25T19:40:30.834Z,7.60
2017-12-25T19:43:01.308Z,7.60
2017-12-25T19:45:31.060Z,7.60
2017-12-25T19:48:01.537Z,7.60
2017-12-25T19:50:31.295Z,7.60
2017-12-25T19:53:01.023Z,7.60
2017-12-25T19:55:31.528Z,7.50
2017-12-25T19:58:01.257Z,7.50
2017-12-25T20:00:31.802Z,7.60
2017-12-25T20:03:01.558Z,7.60
2017-12-25T20:05:31.322Z,7.60
2017-12-25T20:08:01.059Z,7.50
2017-12-25T20:10:30.819Z,7.50
2017-12-25T20:13:00.535Z,7.50
2017-12-25T20:15:31.076Z,7.40
2017-12-25T20:18:01.536Z,7.40
2017-12-25T20:20:31.270Z,7.40
2017-12-25T20:23:00.978Z,7.30
2017-12-25T20:25:30.727Z,7.30
2017-12-25T20:28:01.234Z,7.30
2017-12-25T20:30:30.986Z,7.30
2017-12-25T20:33:00.772Z,7.20
2017-12-25T20:35:30.542Z,7.20
2017-12-25T20:38:00.257Z,7.20
2017-12-25T20:40:30.070Z,7.20
2017-12-25T20:42:59.773Z,7.20
2017-12-25T20:45:29.198Z,7.20
2017-12-25T20:47:58.937Z,7.10
2017-12-25T20:50:29.442Z,7.10
2017-12-25T20:52:59.190Z,7.10
2017-12-25T20:55:28.903Z,7.00
2017-12-25T20:57:58.644Z,7.00
2017-12-25T21:00:28.682Z,7.00
2017-12-25T21:02:58.882Z,7.00
2017-12-25T21:05:28.633Z,7.00
2017-12-25T21:07:58.363Z,7.00
2017-12-25T21:10:29.091Z,7.00
2017-12-25T21:12:58.650Z,6.90
2017-12-25T21:15:28.354Z,7.00
2017-12-25T21:17:58.099Z,6.90
2017-12-25T21:20:27.817Z,6.90
2017-12-25T21:22:57.546Z,6.80
2017-12-25T21:25:27.894Z,6.80
2017-12-25T21:27:57.637Z,6.70
2017-12-25T21:30:27.397Z,6.70
2017-12-25T21:32:57.126Z,6.70
2017-12-25T21:35:26.865Z,6.70
2017-12-25T21:37:57.506Z,6.60
2017-12-25T21:40:27.299Z,6.50
2017-12-25T21:42:57.027Z,6.50
2017-12-25T21:45:26.771Z,6.40
2017-12-25T21:47:56.489Z,6.20
2017-12-25T21:50:26.245Z,6.20
2017-12-25T21:52:55.972Z,6.10
2017-12-25T21:55:25.753Z,6.00
2017-12-25T21:57:55.496Z,5.90
2017-12-25T22:00:25.227Z,5.80
2017-12-25T22:02:55.013Z,5.80
2017-12-25T22:05:24.748Z,5.80
2017-12-25T22:07:54.529Z,5.70
2017-12-25T22:10:24.230Z,5.70
2017-12-25T22:12:53.982Z,5.60
2017-12-25T22:15:23.707Z,5.50
2017-12-25T22:17:53.442Z,5.50
2017-12-25T22:20:23.226Z,5.50
2017-12-25T22:22:52.950Z,5.40
2017-12-25T22:25:24.190Z,5.30
2017-12-25T22:27:53.946Z,5.30
2017-12-25T22:30:23.670Z,5.30
2017-12-25T22:32:53.438Z,5.30
2017-12-25T22:35:23.991Z,5.10
2017-12-25T22:37:53.763Z,5.10
2017-12-25T22:40:23.522Z,5.10
2017-12-25T22:42:53.279Z,5.00
2017-12-25T22:45:23.092Z,5.00
2017-12-25T22:47:53.625Z,5.00
2017-12-25T22:50:24.885Z,5.00
2017-12-25T22:52:55.381Z,4.90
2017-12-25T22:55:25.136Z,4.90
2017-12-25T22:57:55.653Z,4.90
2017-12-25T23:00:26.900Z,4.80
2017-12-25T23:02:56.365Z,4.80
2017-12-25T23:05:26.081Z,4.80
2017-12-25T23:07:55.826Z,4.80
2017-12-25T23:10:25.551Z,4.80
2017-12-25T23:12:55.304Z,4.70
2017-12-25T23:15:25.010Z,4.70
2017-12-25T23:17:54.774Z,4.70
2017-12-25T23:20:24.519Z,4.70
2017-12-25T23:22:54.734Z,4.60
2017-12-25T23:25:25.212Z,4.60
2017-12-25T23:27:54.954Z,4.60
2017-12-25T23:30:24.774Z,4.60
2017-12-25T23:32:54.477Z,4.50
2017-12-25T23:35:24.230Z,4.50
2017-12-25T23:37:54.718Z,4.50
2017-12-25T23:40:24.490Z,4.40
2017-12-25T23:42:55.033Z,4.50
2017-12-25T23:45:24.814Z,4.50
2017-12-25T23:47:54.569Z,4.40
2017-12-25T23:50:24.287Z,4.40
2017-12-25T23:52:54.027Z,4.30
2017-12-25T23:55:24.570Z,4.30
2017-12-25T23:57:54.304Z,4.20
